Racecast

Orin Rose

Mountain View (CA) · 10 · NORTHERNCO D4A4A · Compare head to head

Athlete rating 112.5 2026 TF season
Best race 114.2 TF
Races 32
Seasons 3 2024 — 2026

RankedNation #49853·CO #1090·CO D4A #577·NORTHERN #16·Team #94 ?

Speed rating — all races

Cross Country

XC speed rating

2025 XC 108.0

Mountain View (CA) · Grade 10

Date Meet Event Result Place Rating Difficulty PR/SR Flags
2025-10-10 Spring Canyon Park 5000m 18:45.5 27th · 3rd on team 111.7 +0.037 ★CR R CSR RSR
2025-09-19 Les Bolstadt Golf Course 5000m 20:56.8 271st · 2nd on team 101.7 +0.046 ★CR CSR
2025-09-13 Heritage High School 5000m 18:42.6 80th · 1st on team 109.2 -0.001 ★PR ★CR SR CSR
2025-08-30 Fort Collins High School 5000m 18:48 101st · 2nd on team 110.7 +0.023 PR ★CR R SR CSR RSR
2025-08-23 Washington Park 5000m 19:37 48th · 2nd on team 106.6 +0.029 ★CR SR CSR RSR

2024 XC 105.9

Mountain View (CA) · Grade 9

Date Meet Event Result Place Rating Difficulty PR/SR Flags
2024-09-27 Toka Sticks Golf Course 5000m 19:34.7 103rd · 1st on team 106.1 +0.009 ★CR CSR
2024-09-21 Lyons Middle/High School 5000m 20:02.3 174th · 2nd on team 107.0 +0.046 ★CR R CSR RSR
2024-09-14 Heritage High School 5000m 19:24.3 110th · 1st on team 106.9 -0.001 PR CR R SR CSR RSR
2024-08-31 Fort Collins High School 5000m 20:25 44th · 2nd on team 103.6 +0.023 PR CR R SR CSR RSR

Track & Field

TF speed rating

2026 TF 109.9

Mountain View (CA) · Grade 10

Date Meet Event Result Place Rating Difficulty PR/SR Flags
2026-04-29 Longs Peak and Northern Conference Championships 1600m 5:00.89 17th · 1st on team 114.2 -0.014 ★PR ★R SR RSR
2026-04-29 Longs Peak and Northern Conference Championships 3200m 11:24.9 12th · 1st on team 108.9 -0.014 ★PR SR
2026-04-29 Longs Peak and Northern Conference Championships 800m 2:20.52 26th · 4th on team 109.5 -0.014
2026-04-24 Longmont Invitational 800m 2:16.99 51st · 1st on team 112.2 -0.015 ★PR SR
2026-04-24 Longmont Invitational 1600m 5:03.11 42nd · 1st on team 113.3 -0.015 PR R SR RSR
2026-04-21 NOCO Berthoud Qualifier 800m 2:17.75 13th · 1st on team 112.6 -0.006 PR R SR RSR
2026-04-18 Randall Hess Roughrider Invitational 1600m 5:05.55 66th · 2nd on team 112.5 -0.014 PR R SR RSR
2026-04-07 NoCo JV Meet #4 1600m 5:09.49 3rd · 1st on team 112.2 -0.004 R RSR
2026-04-07 NoCo JV Meet #4 800m 2:22.96 5th · 1st on team 108.7 -0.004 PR SR
2026-04-04 Altitude Running Invitational 1600m 5:07.28 36th · 1st on team 112.2 -0.012 PR R SR RSR
2026-04-04 Altitude Running Invitational 3200m 11:39.38 36th · 2nd on team 106.9 -0.012 SR
2026-03-27 Roosevelt Power Meet Invitational 1600m 5:14.86 51st · 2nd on team 109.2 -0.014 SR RSR
2026-03-21 Runners Roost of Fort Collins Invitational 800m 2:23.45 45th · 1st on team 107.5 -0.012 SR RSR
2026-03-21 Runners Roost of Fort Collins Invitational 1600m 5:25.52 43rd · 2nd on team 105.9 -0.012
2026-03-07 Max Marr Invitational 800m 2:25.97 26th · 1st on team 106.2 -0.006 SR RSR
2026-03-07 Max Marr Invitational 1600m 5:24.21 28th · 2nd on team 106.9 -0.006 SR RSR

2025 TF 106.5

Mountain View (CA) · Grade 9

Date Meet Event Result Place Rating Difficulty PR/SR Flags
2025-04-30 Longs Peak and Rocky Mountain League Meet 3200m 11:36.03 15th · 1st on team 106.6 -0.014 PR SR
2025-04-30 Longs Peak and Rocky Mountain League Meet 1600m 5:14.45 16th · 1st on team 109.1 -0.014 PR R SR RSR
2025-04-19 Randall Hess Roughrider Invitational 1600m 5:15.44 70th · 1st on team 108.8 -0.014 PR R SR RSR
2025-04-05 Altitude Running Invite 3200m 11:59.56 36th · 1st on team 103.5 -0.012
2025-03-15 Murray Kula Invitational 800m 2:23.42 38th · 1st on team 108.4 -0.008 PR R SR RSR
2025-03-13 NOCO Roosevelt Qualifier 3200m 11:54.4 7th · 1st on team 104.1 -0.014 PR SR RSR
2025-03-13 NOCO Roosevelt Qualifier 1600m 5:25.81 25th · 1st on team 105.2 -0.014 PR SR RSR